sensor_id;sensor_type;location;lat;lon;timestamp;P1;durP1;ratioP1;P2;durP2;ratioP2
3747;SDS011;1889;50.058;8.688;2024-01-25T00:01:27;16.10;;;4.28;;
3747;SDS011;1889;50.058;8.688;2024-01-25T00:04:00;16.35;;;4.65;;
3747;SDS011;1889;50.058;8.688;2024-01-25T00:06:44;15.13;;;4.05;;
3747;SDS011;1889;50.058;8.688;2024-01-25T00:09:03;14.98;;;4.62;;
3747;SDS011;1889;50.058;8.688;2024-01-25T00:11:37;9.63;;;3.08;;
3747;SDS011;1889;50.058;8.688;2024-01-25T00:14:16;17.57;;;4.30;;
3747;SDS011;1889;50.058;8.688;2024-01-25T00:16:47;14.10;;;4.17;;
3747;SDS011;1889;50.058;8.688;2024-01-25T00:19:22;12.25;;;3.95;;
3747;SDS011;1889;50.058;8.688;2024-01-25T00:21:59;17.15;;;3.52;;
3747;SDS011;1889;50.058;8.688;2024-01-25T00:24:23;13.62;;;4.22;;
3747;SDS011;1889;50.058;8.688;2024-01-25T00:26:54;20.65;;;4.12;;
3747;SDS011;1889;50.058;8.688;2024-01-25T00:29:24;15.48;;;4.12;;
3747;SDS011;1889;50.058;8.688;2024-01-25T00:32:03;17.07;;;3.80;;
3747;SDS011;1889;50.058;8.688;2024-01-25T00:34:33;14.65;;;3.92;;
3747;SDS011;1889;50.058;8.688;2024-01-25T00:39:53;14.65;;;3.62;;
3747;SDS011;1889;50.058;8.688;2024-01-25T00:42:23;15.20;;;3.92;;
3747;SDS011;1889;50.058;8.688;2024-01-25T00:44:53;14.23;;;3.92;;
3747;SDS011;1889;50.058;8.688;2024-01-25T00:47:22;14.28;;;3.90;;
3747;SDS011;1889;50.058;8.688;2024-01-25T00:49:52;14.07;;;4.05;;
3747;SDS011;1889;50.058;8.688;2024-01-25T00:52:22;17.42;;;4.65;;
3747;SDS011;1889;50.058;8.688;2024-01-25T00:54:51;17.07;;;4.25;;
3747;SDS011;1889;50.058;8.688;2024-01-25T00:57:21;17.87;;;4.45;;
3747;SDS011;1889;50.058;8.688;2024-01-25T00:59:51;13.90;;;3.85;;
3747;SDS011;1889;50.058;8.688;2024-01-25T01:02:20;20.10;;;4.42;;
3747;SDS011;1889;50.058;8.688;2024-01-25T01:04:51;17.98;;;4.00;;
3747;SDS011;1889;50.058;8.688;2024-01-25T01:07:20;16.95;;;3.95;;
3747;SDS011;1889;50.058;8.688;2024-01-25T01:09:49;16.48;;;4.03;;
3747;SDS011;1889;50.058;8.688;2024-01-25T01:12:19;15.08;;;3.67;;
3747;SDS011;1889;50.058;8.688;2024-01-25T01:14:48;11.25;;;3.20;;
3747;SDS011;1889;50.058;8.688;2024-01-25T01:17:17;8.68;;;3.62;;
3747;SDS011;1889;50.058;8.688;2024-01-25T01:19:47;22.67;;;3.90;;
3747;SDS011;1889;50.058;8.688;2024-01-25T01:22:16;11.83;;;4.00;;
3747;SDS011;1889;50.058;8.688;2024-01-25T01:24:45;14.15;;;3.95;;
3747;SDS011;1889;50.058;8.688;2024-01-25T01:27:15;15.25;;;4.72;;
3747;SDS011;1889;50.058;8.688;2024-01-25T01:29:45;15.45;;;4.45;;
3747;SDS011;1889;50.058;8.688;2024-01-25T01:32:14;13.93;;;3.60;;
3747;SDS011;1889;50.058;8.688;2024-01-25T01:34:43;17.57;;;3.70;;
3747;SDS011;1889;50.058;8.688;2024-01-25T01:37:13;16.55;;;3.70;;
3747;SDS011;1889;50.058;8.688;2024-01-25T01:39:42;14.78;;;4.37;;
3747;SDS011;1889;50.058;8.688;2024-01-25T01:42:11;13.35;;;4.05;;
3747;SDS011;1889;50.058;8.688;2024-01-25T01:44:41;16.15;;;3.75;;
3747;SDS011;1889;50.058;8.688;2024-01-25T01:47:10;14.85;;;3.90;;
3747;SDS011;1889;50.058;8.688;2024-01-25T01:49:39;20.35;;;4.28;;
3747;SDS011;1889;50.058;8.688;2024-01-25T01:52:09;14.90;;;3.95;;
3747;SDS011;1889;50.058;8.688;2024-01-25T01:54:40;12.28;;;3.62;;
3747;SDS011;1889;50.058;8.688;2024-01-25T01:57:09;16.62;;;3.92;;
3747;SDS011;1889;50.058;8.688;2024-01-25T01:59:39;15.00;;;3.92;;
3747;SDS011;1889;50.058;8.688;2024-01-25T02:02:09;15.35;;;4.08;;
3747;SDS011;1889;50.058;8.688;2024-01-25T02:04:38;17.40;;;4.33;;
3747;SDS011;1889;50.058;8.688;2024-01-25T02:07:08;12.30;;;3.70;;
3747;SDS011;1889;50.058;8.688;2024-01-25T02:09:37;11.85;;;3.72;;
3747;SDS011;1889;50.058;8.688;2024-01-25T02:12:07;17.37;;;4.83;;
3747;SDS011;1889;50.058;8.688;2024-01-25T02:14:36;15.03;;;3.45;;
3747;SDS011;1889;50.058;8.688;2024-01-25T02:17:05;10.32;;;3.47;;
3747;SDS011;1889;50.058;8.688;2024-01-25T02:19:35;13.98;;;4.17;;
3747;SDS011;1889;50.058;8.688;2024-01-25T02:22:04;14.47;;;4.30;;
3747;SDS011;1889;50.058;8.688;2024-01-25T02:24:35;11.53;;;3.67;;
3747;SDS011;1889;50.058;8.688;2024-01-25T02:27:04;15.70;;;3.90;;
3747;SDS011;1889;50.058;8.688;2024-01-25T02:29:34;13.68;;;3.40;;
3747;SDS011;1889;50.058;8.688;2024-01-25T02:32:04;13.68;;;3.90;;
3747;SDS011;1889;50.058;8.688;2024-01-25T02:34:34;12.13;;;3.98;;
3747;SDS011;1889;50.058;8.688;2024-01-25T02:37:03;16.60;;;3.30;;
3747;SDS011;1889;50.058;8.688;2024-01-25T02:39:33;12.78;;;4.00;;
3747;SDS011;1889;50.058;8.688;2024-01-25T02:42:02;14.80;;;4.40;;
3747;SDS011;1889;50.058;8.688;2024-01-25T02:44:32;14.33;;;3.67;;
3747;SDS011;1889;50.058;8.688;2024-01-25T02:47:01;16.52;;;3.95;;
3747;SDS011;1889;50.058;8.688;2024-01-25T02:49:30;16.52;;;4.10;;
3747;SDS011;1889;50.058;8.688;2024-01-25T02:52:00;14.13;;;3.70;;
3747;SDS011;1889;50.058;8.688;2024-01-25T02:54:29;12.50;;;3.87;;
3747;SDS011;1889;50.058;8.688;2024-01-25T02:56:59;14.23;;;4.15;;
3747;SDS011;1889;50.058;8.688;2024-01-25T02:59:28;11.83;;;4.00;;
3747;SDS011;1889;50.058;8.688;2024-01-25T03:01:57;13.20;;;3.92;;
3747;SDS011;1889;50.058;8.688;2024-01-25T03:04:27;18.05;;;4.20;;
3747;SDS011;1889;50.058;8.688;2024-01-25T03:06:56;16.90;;;4.25;;
3747;SDS011;1889;50.058;8.688;2024-01-25T03:09:25;15.70;;;3.47;;
3747;SDS011;1889;50.058;8.688;2024-01-25T03:11:55;11.55;;;3.87;;
3747;SDS011;1889;50.058;8.688;2024-01-25T03:14:24;17.15;;;4.05;;
3747;SDS011;1889;50.058;8.688;2024-01-25T03:16:54;18.67;;;4.33;;
3747;SDS011;1889;50.058;8.688;2024-01-25T03:19:24;10.70;;;3.92;;
3747;SDS011;1889;50.058;8.688;2024-01-25T03:21:55;15.28;;;4.10;;
3747;SDS011;1889;50.058;8.688;2024-01-25T03:24:25;14.33;;;3.90;;
3747;SDS011;1889;50.058;8.688;2024-01-25T03:26:55;16.65;;;4.45;;
3747;SDS011;1889;50.058;8.688;2024-01-25T03:29:24;20.70;;;3.75;;
3747;SDS011;1889;50.058;8.688;2024-01-25T03:31:54;16.60;;;3.98;;
3747;SDS011;1889;50.058;8.688;2024-01-25T03:34:23;10.35;;;3.62;;
3747;SDS011;1889;50.058;8.688;2024-01-25T03:36:52;15.28;;;4.45;;
3747;SDS011;1889;50.058;8.688;2024-01-25T03:39:21;15.38;;;4.00;;
3747;SDS011;1889;50.058;8.688;2024-01-25T03:41:51;13.25;;;3.80;;
3747;SDS011;1889;50.058;8.688;2024-01-25T03:44:20;16.97;;;4.60;;
3747;SDS011;1889;50.058;8.688;2024-01-25T03:46:49;13.25;;;3.77;;
3747;SDS011;1889;50.058;8.688;2024-01-25T03:49:19;15.43;;;4.17;;
3747;SDS011;1889;50.058;8.688;2024-01-25T03:51:50;12.85;;;3.65;;
3747;SDS011;1889;50.058;8.688;2024-01-25T03:54:19;18.57;;;4.45;;
3747;SDS011;1889;50.058;8.688;2024-01-25T03:56:48;16.50;;;3.80;;
3747;SDS011;1889;50.058;8.688;2024-01-25T03:59:18;17.70;;;3.70;;
3747;SDS011;1889;50.058;8.688;2024-01-25T04:01:47;12.60;;;3.77;;
3747;SDS011;1889;50.058;8.688;2024-01-25T04:04:17;15.40;;;4.05;;
3747;SDS011;1889;50.058;8.688;2024-01-25T04:06:46;14.83;;;4.28;;
3747;SDS011;1889;50.058;8.688;2024-01-25T04:09:15;12.60;;;4.37;;
3747;SDS011;1889;50.058;8.688;2024-01-25T04:11:44;17.00;;;4.40;;
3747;SDS011;1889;50.058;8.688;2024-01-25T04:14:14;12.68;;;4.12;;
3747;SDS011;1889;50.058;8.688;2024-01-25T04:16:43;15.05;;;3.90;;
3747;SDS011;1889;50.058;8.688;2024-01-25T04:19:14;15.35;;;3.85;;
3747;SDS011;1889;50.058;8.688;2024-01-25T04:21:43;23.12;;;4.80;;
3747;SDS011;1889;50.058;8.688;2024-01-25T04:24:12;15.35;;;4.45;;
3747;SDS011;1889;50.058;8.688;2024-01-25T04:26:42;15.08;;;4.72;;
3747;SDS011;1889;50.058;8.688;2024-01-25T04:29:11;14.05;;;4.25;;
3747;SDS011;1889;50.058;8.688;2024-01-25T04:31:43;13.62;;;3.98;;
3747;SDS011;1889;50.058;8.688;2024-01-25T04:34:13;15.05;;;3.83;;
3747;SDS011;1889;50.058;8.688;2024-01-25T04:36:43;18.75;;;3.90;;
3747;SDS011;1889;50.058;8.688;2024-01-25T04:39:12;10.90;;;3.67;;
3747;SDS011;1889;50.058;8.688;2024-01-25T04:41:42;19.05;;;3.90;;
3747;SDS011;1889;50.058;8.688;2024-01-25T04:44:11;15.30;;;3.98;;
3747;SDS011;1889;50.058;8.688;2024-01-25T04:46:41;15.70;;;4.22;;
3747;SDS011;1889;50.058;8.688;2024-01-25T04:49:10;16.55;;;4.17;;
3747;SDS011;1889;50.058;8.688;2024-01-25T04:51:40;12.95;;;3.65;;
3747;SDS011;1889;50.058;8.688;2024-01-25T04:54:09;13.75;;;3.67;;
3747;SDS011;1889;50.058;8.688;2024-01-25T04:56:40;10.43;;;4.00;;
3747;SDS011;1889;50.058;8.688;2024-01-25T04:59:12;11.75;;;3.60;;
3747;SDS011;1889;50.058;8.688;2024-01-25T05:01:41;16.32;;;4.28;;
3747;SDS011;1889;50.058;8.688;2024-01-25T05:04:11;19.77;;;4.60;;
3747;SDS011;1889;50.058;8.688;2024-01-25T05:06:41;16.80;;;4.53;;
3747;SDS011;1889;50.058;8.688;2024-01-25T05:09:10;19.35;;;4.83;;
3747;SDS011;1889;50.058;8.688;2024-01-25T05:11:39;11.00;;;3.85;;
3747;SDS011;1889;50.058;8.688;2024-01-25T05:14:09;17.00;;;4.17;;
3747;SDS011;1889;50.058;8.688;2024-01-25T05:16:38;17.42;;;4.10;;
3747;SDS011;1889;50.058;8.688;2024-01-25T05:19:07;16.15;;;4.30;;
3747;SDS011;1889;50.058;8.688;2024-01-25T05:21:37;12.58;;;4.17;;
3747;SDS011;1889;50.058;8.688;2024-01-25T05:24:06;17.12;;;4.30;;
3747;SDS011;1889;50.058;8.688;2024-01-25T05:26:37;16.45;;;4.47;;
3747;SDS011;1889;50.058;8.688;2024-01-25T05:29:07;15.50;;;4.17;;
3747;SDS011;1889;50.058;8.688;2024-01-25T05:31:36;15.48;;;4.45;;
3747;SDS011;1889;50.058;8.688;2024-01-25T05:34:05;16.30;;;4.20;;
3747;SDS011;1889;50.058;8.688;2024-01-25T05:36:35;14.58;;;4.03;;
3747;SDS011;1889;50.058;8.688;2024-01-25T05:39:04;24.70;;;4.78;;
3747;SDS011;1889;50.058;8.688;2024-01-25T05:41:33;18.42;;;4.40;;
3747;SDS011;1889;50.058;8.688;2024-01-25T05:44:03;16.05;;;4.70;;
3747;SDS011;1889;50.058;8.688;2024-01-25T05:46:32;14.45;;;4.55;;
3747;SDS011;1889;50.058;8.688;2024-01-25T05:49:01;16.50;;;4.35;;
3747;SDS011;1889;50.058;8.688;2024-01-25T05:51:31;14.87;;;5.00;;
3747;SDS011;1889;50.058;8.688;2024-01-25T05:54:00;17.35;;;4.67;;
3747;SDS011;1889;50.058;8.688;2024-01-25T05:56:29;19.87;;;4.55;;
3747;SDS011;1889;50.058;8.688;2024-01-25T05:59:00;14.00;;;4.42;;
3747;SDS011;1889;50.058;8.688;2024-01-25T06:01:29;16.00;;;4.45;;
3747;SDS011;1889;50.058;8.688;2024-01-25T06:03:58;20.77;;;4.58;;
3747;SDS011;1889;50.058;8.688;2024-01-25T06:06:28;21.25;;;5.10;;
3747;SDS011;1889;50.058;8.688;2024-01-25T06:08:57;13.70;;;4.03;;
3747;SDS011;1889;50.058;8.688;2024-01-25T06:11:26;15.43;;;3.58;;
3747;SDS011;1889;50.058;8.688;2024-01-25T06:13:56;18.37;;;4.20;;
3747;SDS011;1889;50.058;8.688;2024-01-25T06:16:25;12.98;;;4.17;;
3747;SDS011;1889;50.058;8.688;2024-01-25T06:18:54;17.45;;;3.92;;
3747;SDS011;1889;50.058;8.688;2024-01-25T06:21:23;16.85;;;4.08;;
3747;SDS011;1889;50.058;8.688;2024-01-25T06:23:53;12.00;;;4.20;;
3747;SDS011;1889;50.058;8.688;2024-01-25T06:26:22;13.08;;;3.85;;
3747;SDS011;1889;50.058;8.688;2024-01-25T06:28:51;13.93;;;4.47;;
3747;SDS011;1889;50.058;8.688;2024-01-25T06:31:21;12.13;;;3.98;;
3747;SDS011;1889;50.058;8.688;2024-01-25T06:33:50;20.62;;;4.35;;
3747;SDS011;1889;50.058;8.688;2024-01-25T06:36:20;13.68;;;4.40;;
3747;SDS011;1889;50.058;8.688;2024-01-25T06:38:49;17.37;;;4.72;;
3747;SDS011;1889;50.058;8.688;2024-01-25T06:41:19;15.78;;;4.60;;
3747;SDS011;1889;50.058;8.688;2024-01-25T06:43:48;15.72;;;4.40;;
3747;SDS011;1889;50.058;8.688;2024-01-25T06:46:17;16.05;;;4.25;;
3747;SDS011;1889;50.058;8.688;2024-01-25T06:48:47;13.68;;;4.42;;
3747;SDS011;1889;50.058;8.688;2024-01-25T06:51:18;13.10;;;4.20;;
3747;SDS011;1889;50.058;8.688;2024-01-25T06:53:47;21.33;;;4.58;;
3747;SDS011;1889;50.058;8.688;2024-01-25T06:56:17;12.28;;;4.45;;
3747;SDS011;1889;50.058;8.688;2024-01-25T06:58:46;21.62;;;4.95;;
3747;SDS011;1889;50.058;8.688;2024-01-25T07:01:22;16.57;;;4.87;;
3747;SDS011;1889;50.058;8.688;2024-01-25T07:03:51;16.37;;;4.12;;
3747;SDS011;1889;50.058;8.688;2024-01-25T07:06:20;19.60;;;4.53;;
3747;SDS011;1889;50.058;8.688;2024-01-25T07:08:50;11.73;;;4.20;;
3747;SDS011;1889;50.058;8.688;2024-01-25T07:11:20;19.23;;;4.45;;
3747;SDS011;1889;50.058;8.688;2024-01-25T07:13:50;14.80;;;3.80;;
3747;SDS011;1889;50.058;8.688;2024-01-25T07:16:20;14.78;;;3.62;;
3747;SDS011;1889;50.058;8.688;2024-01-25T07:18:51;12.50;;;3.42;;
3747;SDS011;1889;50.058;8.688;2024-01-25T07:21:20;16.45;;;3.85;;
3747;SDS011;1889;50.058;8.688;2024-01-25T07:23:49;15.30;;;4.15;;
3747;SDS011;1889;50.058;8.688;2024-01-25T07:26:19;12.80;;;4.17;;
3747;SDS011;1889;50.058;8.688;2024-01-25T07:28:49;13.62;;;4.25;;
3747;SDS011;1889;50.058;8.688;2024-01-25T07:31:20;15.78;;;4.20;;
3747;SDS011;1889;50.058;8.688;2024-01-25T07:33:49;17.50;;;3.95;;
3747;SDS011;1889;50.058;8.688;2024-01-25T07:36:19;38.40;;;6.92;;
3747;SDS011;1889;50.058;8.688;2024-01-25T07:38:48;16.17;;;4.00;;
3747;SDS011;1889;50.058;8.688;2024-01-25T07:41:18;14.60;;;4.12;;
3747;SDS011;1889;50.058;8.688;2024-01-25T07:43:47;12.88;;;4.20;;
3747;SDS011;1889;50.058;8.688;2024-01-25T07:46:17;18.67;;;4.65;;
3747;SDS011;1889;50.058;8.688;2024-01-25T07:48:46;18.77;;;3.87;;
3747;SDS011;1889;50.058;8.688;2024-01-25T07:51:16;12.95;;;4.03;;
3747;SDS011;1889;50.058;8.688;2024-01-25T07:53:45;17.07;;;3.80;;
3747;SDS011;1889;50.058;8.688;2024-01-25T07:56:15;17.65;;;4.75;;
3747;SDS011;1889;50.058;8.688;2024-01-25T07:58:44;12.33;;;4.05;;
3747;SDS011;1889;50.058;8.688;2024-01-25T08:01:16;17.98;;;4.47;;
3747;SDS011;1889;50.058;8.688;2024-01-25T08:03:48;16.52;;;4.53;;
3747;SDS011;1889;50.058;8.688;2024-01-25T08:06:17;21.45;;;5.28;;
3747;SDS011;1889;50.058;8.688;2024-01-25T08:08:47;18.10;;;5.47;;
3747;SDS011;1889;50.058;8.688;2024-01-25T08:11:16;12.88;;;4.47;;
3747;SDS011;1889;50.058;8.688;2024-01-25T08:13:47;15.60;;;4.75;;
3747;SDS011;1889;50.058;8.688;2024-01-25T08:16:16;17.10;;;4.65;;
3747;SDS011;1889;50.058;8.688;2024-01-25T08:18:47;14.47;;;4.20;;
3747;SDS011;1889;50.058;8.688;2024-01-25T08:21:17;13.20;;;4.58;;
3747;SDS011;1889;50.058;8.688;2024-01-25T08:23:46;20.00;;;8.33;;
3747;SDS011;1889;50.058;8.688;2024-01-25T08:26:15;54.65;;;19.85;;
3747;SDS011;1889;50.058;8.688;2024-01-25T08:28:45;38.70;;;15.50;;
3747;SDS011;1889;50.058;8.688;2024-01-25T08:31:15;22.58;;;6.87;;
3747;SDS011;1889;50.058;8.688;2024-01-25T08:33:44;16.52;;;4.72;;
3747;SDS011;1889;50.058;8.688;2024-01-25T08:36:17;19.52;;;5.00;;
3747;SDS011;1889;50.058;8.688;2024-01-25T08:38:47;18.23;;;4.05;;
3747;SDS011;1889;50.058;8.688;2024-01-25T08:41:16;13.20;;;4.60;;
3747;SDS011;1889;50.058;8.688;2024-01-25T08:43:46;14.03;;;4.08;;
3747;SDS011;1889;50.058;8.688;2024-01-25T08:46:16;10.80;;;4.40;;
3747;SDS011;1889;50.058;8.688;2024-01-25T08:48:45;12.40;;;4.83;;
3747;SDS011;1889;50.058;8.688;2024-01-25T08:51:14;16.87;;;4.90;;
3747;SDS011;1889;50.058;8.688;2024-01-25T08:53:44;17.82;;;4.67;;
3747;SDS011;1889;50.058;8.688;2024-01-25T08:56:13;17.05;;;4.58;;
3747;SDS011;1889;50.058;8.688;2024-01-25T08:58:42;13.80;;;4.25;;
3747;SDS011;1889;50.058;8.688;2024-01-25T09:01:12;20.75;;;4.85;;
3747;SDS011;1889;50.058;8.688;2024-01-25T09:03:41;18.17;;;5.75;;
3747;SDS011;1889;50.058;8.688;2024-01-25T09:06:10;15.75;;;5.05;;
3747;SDS011;1889;50.058;8.688;2024-01-25T09:08:39;23.10;;;5.28;;
3747;SDS011;1889;50.058;8.688;2024-01-25T09:11:09;18.42;;;5.30;;
3747;SDS011;1889;50.058;8.688;2024-01-25T09:13:38;22.40;;;5.95;;
3747;SDS011;1889;50.058;8.688;2024-01-25T09:16:09;24.47;;;4.75;;
3747;SDS011;1889;50.058;8.688;2024-01-25T09:18:38;16.77;;;4.95;;
3747;SDS011;1889;50.058;8.688;2024-01-25T09:21:08;15.10;;;5.33;;
3747;SDS011;1889;50.058;8.688;2024-01-25T09:23:37;17.52;;;6.05;;
3747;SDS011;1889;50.058;8.688;2024-01-25T09:26:07;24.57;;;5.60;;
3747;SDS011;1889;50.058;8.688;2024-01-25T09:28:36;17.17;;;5.62;;
3747;SDS011;1889;50.058;8.688;2024-01-25T09:31:06;22.95;;;5.37;;
3747;SDS011;1889;50.058;8.688;2024-01-25T09:33:36;18.50;;;5.35;;
3747;SDS011;1889;50.058;8.688;2024-01-25T09:36:05;21.20;;;5.05;;
3747;SDS011;1889;50.058;8.688;2024-01-25T09:38:35;25.10;;;5.30;;
3747;SDS011;1889;50.058;8.688;2024-01-25T09:41:04;20.65;;;5.20;;
3747;SDS011;1889;50.058;8.688;2024-01-25T09:43:33;17.17;;;4.97;;
3747;SDS011;1889;50.058;8.688;2024-01-25T09:46:04;26.57;;;5.45;;
3747;SDS011;1889;50.058;8.688;2024-01-25T09:48:35;22.70;;;5.47;;
3747;SDS011;1889;50.058;8.688;2024-01-25T09:51:04;17.10;;;5.20;;
3747;SDS011;1889;50.058;8.688;2024-01-25T09:53:34;14.65;;;5.17;;
3747;SDS011;1889;50.058;8.688;2024-01-25T09:56:05;15.75;;;4.97;;
3747;SDS011;1889;50.058;8.688;2024-01-25T09:58:43;17.32;;;4.90;;
3747;SDS011;1889;50.058;8.688;2024-01-25T10:01:15;16.93;;;5.40;;
3747;SDS011;1889;50.058;8.688;2024-01-25T10:03:45;17.85;;;4.87;;
3747;SDS011;1889;50.058;8.688;2024-01-25T10:06:15;21.45;;;5.25;;
3747;SDS011;1889;50.058;8.688;2024-01-25T10:08:45;19.57;;;4.80;;
3747;SDS011;1889;50.058;8.688;2024-01-25T10:11:14;16.77;;;5.28;;
3747;SDS011;1889;50.058;8.688;2024-01-25T10:13:45;11.28;;;4.80;;
3747;SDS011;1889;50.058;8.688;2024-01-25T10:16:18;17.07;;;5.87;;
3747;SDS011;1889;50.058;8.688;2024-01-25T10:18:47;15.50;;;5.15;;
3747;SDS011;1889;50.058;8.688;2024-01-25T10:21:19;16.75;;;5.03;;
3747;SDS011;1889;50.058;8.688;2024-01-25T10:23:49;18.70;;;5.28;;
3747;SDS011;1889;50.058;8.688;2024-01-25T10:26:20;18.87;;;5.17;;
3747;SDS011;1889;50.058;8.688;2024-01-25T10:28:52;13.83;;;4.62;;
3747;SDS011;1889;50.058;8.688;2024-01-25T10:31:24;14.85;;;5.55;;
3747;SDS011;1889;50.058;8.688;2024-01-25T10:33:54;14.85;;;5.10;;
3747;SDS011;1889;50.058;8.688;2024-01-25T10:36:23;25.77;;;5.67;;
3747;SDS011;1889;50.058;8.688;2024-01-25T10:38:55;20.65;;;5.37;;
3747;SDS011;1889;50.058;8.688;2024-01-25T10:41:25;13.50;;;5.25;;
3747;SDS011;1889;50.058;8.688;2024-01-25T10:43:55;20.25;;;5.28;;
3747;SDS011;1889;50.058;8.688;2024-01-25T10:46:24;20.77;;;5.00;;
3747;SDS011;1889;50.058;8.688;2024-01-25T10:48:57;20.37;;;5.00;;
3747;SDS011;1889;50.058;8.688;2024-01-25T10:51:29;13.95;;;4.78;;
3747;SDS011;1889;50.058;8.688;2024-01-25T10:53:59;14.68;;;4.53;;
3747;SDS011;1889;50.058;8.688;2024-01-25T10:56:29;23.87;;;5.20;;
3747;SDS011;1889;50.058;8.688;2024-01-25T10:58:59;17.20;;;4.80;;
3747;SDS011;1889;50.058;8.688;2024-01-25T11:01:28;13.43;;;4.70;;
3747;SDS011;1889;50.058;8.688;2024-01-25T11:03:58;24.25;;;5.35;;
3747;SDS011;1889;50.058;8.688;2024-01-25T11:06:27;17.73;;;5.12;;
3747;SDS011;1889;50.058;8.688;2024-01-25T11:09:03;18.12;;;5.03;;
3747;SDS011;1889;50.058;8.688;2024-01-25T11:11:35;15.83;;;4.62;;
3747;SDS011;1889;50.058;8.688;2024-01-25T11:14:10;16.07;;;4.47;;
3747;SDS011;1889;50.058;8.688;2024-01-25T11:16:37;16.25;;;4.92;;
3747;SDS011;1889;50.058;8.688;2024-01-25T11:19:08;25.08;;;5.55;;
3747;SDS011;1889;50.058;8.688;2024-01-25T11:21:42;16.15;;;4.58;;
3747;SDS011;1889;50.058;8.688;2024-01-25T11:24:16;15.85;;;4.70;;
3747;SDS011;1889;50.058;8.688;2024-01-25T11:26:47;18.75;;;4.10;;
3747;SDS011;1889;50.058;8.688;2024-01-25T11:29:18;20.05;;;5.37;;
3747;SDS011;1889;50.058;8.688;2024-01-25T11:31:50;17.17;;;5.03;;
3747;SDS011;1889;50.058;8.688;2024-01-25T11:34:20;13.22;;;4.55;;
3747;SDS011;1889;50.058;8.688;2024-01-25T11:36:49;14.15;;;4.70;;
3747;SDS011;1889;50.058;8.688;2024-01-25T11:39:19;14.93;;;4.80;;
3747;SDS011;1889;50.058;8.688;2024-01-25T11:41:48;19.65;;;4.92;;
3747;SDS011;1889;50.058;8.688;2024-01-25T11:44:20;15.98;;;4.40;;
3747;SDS011;1889;50.058;8.688;2024-01-25T11:46:53;18.48;;;4.53;;
3747;SDS011;1889;50.058;8.688;2024-01-25T11:49:24;17.15;;;4.50;;
3747;SDS011;1889;50.058;8.688;2024-01-25T11:51:54;12.43;;;4.60;;
3747;SDS011;1889;50.058;8.688;2024-01-25T11:54:23;16.25;;;4.55;;
3747;SDS011;1889;50.058;8.688;2024-01-25T11:56:53;19.37;;;4.80;;
3747;SDS011;1889;50.058;8.688;2024-01-25T11:59:22;16.17;;;5.10;;
3747;SDS011;1889;50.058;8.688;2024-01-25T12:01:52;16.55;;;4.95;;
3747;SDS011;1889;50.058;8.688;2024-01-25T12:04:21;19.95;;;5.17;;
3747;SDS011;1889;50.058;8.688;2024-01-25T12:06:52;11.20;;;4.12;;
3747;SDS011;1889;50.058;8.688;2024-01-25T12:09:22;13.40;;;4.08;;
3747;SDS011;1889;50.058;8.688;2024-01-25T12:11:51;12.23;;;4.67;;
3747;SDS011;1889;50.058;8.688;2024-01-25T12:14:20;18.48;;;4.70;;
3747;SDS011;1889;50.058;8.688;2024-01-25T12:16:51;15.50;;;4.30;;
3747;SDS011;1889;50.058;8.688;2024-01-25T12:19:20;13.75;;;4.62;;
3747;SDS011;1889;50.058;8.688;2024-01-25T12:21:56;14.20;;;4.90;;
3747;SDS011;1889;50.058;8.688;2024-01-25T12:24:31;13.40;;;4.75;;
3747;SDS011;1889;50.058;8.688;2024-01-25T12:26:57;18.55;;;4.33;;
3747;SDS011;1889;50.058;8.688;2024-01-25T12:29:27;17.00;;;4.83;;
3747;SDS011;1889;50.058;8.688;2024-01-25T12:31:59;20.68;;;4.70;;
3747;SDS011;1889;50.058;8.688;2024-01-25T12:34:28;17.98;;;4.80;;
3747;SDS011;1889;50.058;8.688;2024-01-25T12:36:58;17.50;;;4.35;;
3747;SDS011;1889;50.058;8.688;2024-01-25T12:39:30;18.48;;;4.28;;
3747;SDS011;1889;50.058;8.688;2024-01-25T12:42:02;18.48;;;4.60;;
3747;SDS011;1889;50.058;8.688;2024-01-25T12:44:35;10.85;;;4.33;;
3747;SDS011;1889;50.058;8.688;2024-01-25T12:47:13;14.87;;;4.78;;
3747;SDS011;1889;50.058;8.688;2024-01-25T12:49:51;11.95;;;4.33;;
3747;SDS011;1889;50.058;8.688;2024-01-25T12:52:16;16.60;;;5.72;;
3747;SDS011;1889;50.058;8.688;2024-01-25T12:54:51;13.08;;;3.92;;
3747;SDS011;1889;50.058;8.688;2024-01-25T12:57:22;15.58;;;4.72;;
3747;SDS011;1889;50.058;8.688;2024-01-25T12:59:54;15.32;;;4.08;;
3747;SDS011;1889;50.058;8.688;2024-01-25T13:02:24;15.98;;;4.62;;
3747;SDS011;1889;50.058;8.688;2024-01-25T13:08:00;10.85;;;3.95;;
3747;SDS011;1889;50.058;8.688;2024-01-25T13:10:30;12.13;;;4.20;;
3747;SDS011;1889;50.058;8.688;2024-01-25T13:13:00;13.75;;;3.87;;
3747;SDS011;1889;50.058;8.688;2024-01-25T13:15:33;9.48;;;4.15;;
3747;SDS011;1889;50.058;8.688;2024-01-25T13:18:03;16.02;;;4.67;;
3747;SDS011;1889;50.058;8.688;2024-01-25T13:23:21;18.48;;;4.12;;
3747;SDS011;1889;50.058;8.688;2024-01-25T13:31:41;14.00;;;3.83;;
3747;SDS011;1889;50.058;8.688;2024-01-25T13:34:16;14.68;;;4.50;;
3747;SDS011;1889;50.058;8.688;2024-01-25T13:36:46;15.08;;;4.83;;
3747;SDS011;1889;50.058;8.688;2024-01-25T13:39:15;16.90;;;4.03;;
3747;SDS011;1889;50.058;8.688;2024-01-25T13:41:44;19.00;;;4.55;;
3747;SDS011;1889;50.058;8.688;2024-01-25T13:44:17;13.08;;;4.15;;
3747;SDS011;1889;50.058;8.688;2024-01-25T13:46:47;11.55;;;3.85;;
3747;SDS011;1889;50.058;8.688;2024-01-25T13:49:17;15.28;;;4.30;;
3747;SDS011;1889;50.058;8.688;2024-01-25T13:51:46;13.78;;;4.20;;
3747;SDS011;1889;50.058;8.688;2024-01-25T13:54:16;12.30;;;3.40;;
3747;SDS011;1889;50.058;8.688;2024-01-25T13:56:45;16.82;;;4.33;;
3747;SDS011;1889;50.058;8.688;2024-01-25T13:59:15;14.47;;;4.42;;
3747;SDS011;1889;50.058;8.688;2024-01-25T14:01:44;19.75;;;3.83;;
3747;SDS011;1889;50.058;8.688;2024-01-25T14:04:13;11.57;;;4.30;;
3747;SDS011;1889;50.058;8.688;2024-01-25T14:06:43;9.70;;;3.85;;
3747;SDS011;1889;50.058;8.688;2024-01-25T14:09:12;15.90;;;4.67;;
3747;SDS011;1889;50.058;8.688;2024-01-25T14:11:42;13.00;;;4.42;;
3747;SDS011;1889;50.058;8.688;2024-01-25T14:14:11;16.05;;;4.67;;
3747;SDS011;1889;50.058;8.688;2024-01-25T14:16:40;12.68;;;3.60;;
3747;SDS011;1889;50.058;8.688;2024-01-25T14:19:10;15.13;;;4.00;;
3747;SDS011;1889;50.058;8.688;2024-01-25T14:21:39;10.05;;;3.87;;
3747;SDS011;1889;50.058;8.688;2024-01-25T14:24:09;15.60;;;4.50;;
3747;SDS011;1889;50.058;8.688;2024-01-25T14:26:38;14.40;;;4.55;;
3747;SDS011;1889;50.058;8.688;2024-01-25T14:29:12;15.50;;;4.42;;
3747;SDS011;1889;50.058;8.688;2024-01-25T14:31:48;9.95;;;4.15;;
3747;SDS011;1889;50.058;8.688;2024-01-25T14:34:23;15.23;;;4.40;;
3747;SDS011;1889;50.058;8.688;2024-01-25T14:39:40;15.65;;;4.25;;
3747;SDS011;1889;50.058;8.688;2024-01-25T14:42:20;16.73;;;4.20;;
3747;SDS011;1889;50.058;8.688;2024-01-25T14:44:49;18.30;;;4.10;;
3747;SDS011;1889;50.058;8.688;2024-01-25T14:47:19;15.78;;;4.75;;
3747;SDS011;1889;50.058;8.688;2024-01-25T14:49:53;14.33;;;4.33;;
3747;SDS011;1889;50.058;8.688;2024-01-25T14:52:22;14.73;;;5.25;;
3747;SDS011;1889;50.058;8.688;2024-01-25T14:54:55;13.65;;;4.12;;
3747;SDS011;1889;50.058;8.688;2024-01-25T14:57:27;16.37;;;4.45;;
3747;SDS011;1889;50.058;8.688;2024-01-25T15:00:00;15.43;;;4.58;;
3747;SDS011;1889;50.058;8.688;2024-01-25T15:02:38;17.90;;;4.10;;
3747;SDS011;1889;50.058;8.688;2024-01-25T15:05:04;17.07;;;4.47;;
3747;SDS011;1889;50.058;8.688;2024-01-25T15:07:38;13.65;;;4.50;;
3747;SDS011;1889;50.058;8.688;2024-01-25T15:10:05;13.22;;;4.33;;
3747;SDS011;1889;50.058;8.688;2024-01-25T15:12:36;12.58;;;4.25;;
3747;SDS011;1889;50.058;8.688;2024-01-25T15:15:07;13.43;;;4.08;;
3747;SDS011;1889;50.058;8.688;2024-01-25T15:17:42;11.50;;;4.28;;
3747;SDS011;1889;50.058;8.688;2024-01-25T15:20:14;16.93;;;4.50;;
3747;SDS011;1889;50.058;8.688;2024-01-25T15:22:44;17.48;;;4.55;;
3747;SDS011;1889;50.058;8.688;2024-01-25T15:25:18;15.70;;;4.20;;
3747;SDS011;1889;50.058;8.688;2024-01-25T15:27:48;14.07;;;4.70;;
3747;SDS011;1889;50.058;8.688;2024-01-25T15:30:18;12.63;;;4.15;;
3747;SDS011;1889;50.058;8.688;2024-01-25T15:32:48;12.95;;;3.87;;
3747;SDS011;1889;50.058;8.688;2024-01-25T15:35:18;15.03;;;4.58;;
3747;SDS011;1889;50.058;8.688;2024-01-25T15:37:48;15.55;;;4.87;;